Bayfield, Colorado
Current Conditions -  °F | °C
As of 1:53 PM on Friday 28 Nov 2014 (Local Time) from KDRO Reporting Station
Clear Clear  
Wind Chill: 56°   Ceiling: Unl
Heat Index: 56°   Visibility: 10mi
Dew Point: 18°   Wind: 5mph
Humidity: 23%   Direction: NA
Pressure: 30.15"   Gusts: NA
Location:  37.23°N, 107.6°W
Report Text: KDRO 282053Z AUTO VRB04KT 10SM CLR 13/M08 A3015 RMK AO2 SLP207 T01331078 56031
Loading
Personal Weather Stations






























Interactive Weather Map New forecast layout! Learn more

10-Day Weather Forecast

Advertisements
Track Severe Weather on mobile